createdAt,value
2022-11-17T00:00:45.113Z,5.43
2022-11-17T00:03:15.770Z,4.80
2022-11-17T00:05:44.151Z,4.23
2022-11-17T00:08:12.367Z,5.10
2022-11-17T00:10:40.475Z,4.53
2022-11-17T00:13:28.726Z,4.53
2022-11-17T00:15:58.188Z,4.40
2022-11-17T00:18:43.947Z,4.73
2022-11-17T00:21:21.296Z,3.80
2022-11-17T00:23:50.377Z,3.87
2022-11-17T00:26:21.318Z,4.53
2022-11-17T00:28:52.712Z,4.00
2022-11-17T00:31:40.979Z,4.10
2022-11-17T00:34:13.583Z,4.50
2022-11-17T00:36:44.679Z,3.47
2022-11-17T00:39:14.973Z,3.77
2022-11-17T00:41:43.175Z,4.87
2022-11-17T00:44:11.369Z,4.50
2022-11-17T00:46:42.546Z,3.73
2022-11-17T00:49:12.686Z,3.37
2022-11-17T00:51:40.875Z,3.87
2022-11-17T00:54:13.153Z,2.90
2022-11-17T00:56:41.730Z,3.57
2022-11-17T00:59:10.358Z,3.43
2022-11-17T01:01:40.754Z,3.30
2022-11-17T01:04:09.245Z,2.93
2022-11-17T01:06:40.819Z,3.27
2022-11-17T01:09:13.609Z,3.53
2022-11-17T01:11:42.409Z,3.20
2022-11-17T01:14:15.276Z,3.03
2022-11-17T01:16:46.099Z,2.70
2022-11-17T01:19:16.009Z,2.87
2022-11-17T01:21:44.440Z,2.63
2022-11-17T01:24:16.091Z,3.30
2022-11-17T01:26:46.596Z,3.47
2022-11-17T01:29:17.367Z,2.90
2022-11-17T01:31:53.111Z,3.13
2022-11-17T01:34:21.280Z,4.13
2022-11-17T01:37:07.291Z,3.53
2022-11-17T01:39:35.404Z,3.10
2022-11-17T01:42:10.594Z,3.10
2022-11-17T01:44:59.990Z,3.10
2022-11-17T01:47:43.520Z,3.20
2022-11-17T01:50:26.040Z,2.90
2022-11-17T01:52:59.556Z,3.07
2022-11-17T01:55:34.623Z,3.00
2022-11-17T01:58:09.837Z,2.80
2022-11-17T02:00:38.054Z,3.47
2022-11-17T02:03:11.217Z,2.87
2022-11-17T02:05:52.797Z,4.27
2022-11-17T02:08:25.222Z,2.93
2022-11-17T02:10:54.644Z,2.67
2022-11-17T02:13:23.957Z,2.63
2022-11-17T02:15:52.045Z,3.10
2022-11-17T02:18:22.494Z,3.00
2022-11-17T02:21:23.739Z,3.20
2022-11-17T02:24:43.288Z,3.10
2022-11-17T02:27:49.977Z,3.37
2022-11-17T02:30:21.368Z,2.80
2022-11-17T02:33:03.696Z,3.33
2022-11-17T02:35:46.441Z,3.30
2022-11-17T02:38:30.364Z,4.43
2022-11-17T02:41:10.218Z,3.77
2022-11-17T02:44:03.987Z,3.57
2022-11-17T02:46:51.739Z,4.33
2022-11-17T02:49:25.269Z,4.23
2022-11-17T02:51:58.424Z,4.40
2022-11-17T02:54:30.696Z,3.90
2022-11-17T02:56:58.928Z,4.33
2022-11-17T02:59:36.480Z,3.93
2022-11-17T03:02:36.497Z,4.80
2022-11-17T03:05:16.110Z,4.93
2022-11-17T03:08:09.972Z,4.00
2022-11-17T03:10:52.759Z,4.03
2022-11-17T03:13:28.487Z,4.40
2022-11-17T03:16:11.332Z,3.97
2022-11-17T03:18:56.849Z,3.90
2022-11-17T03:21:32.706Z,4.13
2022-11-17T03:24:06.232Z,4.70
2022-11-17T03:26:40.746Z,3.90
2022-11-17T03:29:15.484Z,4.10
2022-11-17T03:31:49.366Z,4.37
2022-11-17T03:34:23.724Z,4.00
2022-11-17T03:36:59.491Z,4.23
2022-11-17T03:39:34.577Z,4.17
2022-11-17T03:42:09.440Z,4.07
2022-11-17T03:44:43.987Z,3.60
2022-11-17T03:47:16.918Z,4.47
2022-11-17T03:49:52.524Z,4.10
2022-11-17T03:52:21.735Z,3.90
2022-11-17T03:54:50.330Z,3.83
2022-11-17T03:57:27.585Z,3.30
2022-11-17T04:00:02.164Z,3.93
2022-11-17T04:02:31.824Z,3.90
2022-11-17T04:05:09.105Z,4.20
2022-11-17T04:07:40.114Z,4.67
2022-11-17T04:10:11.795Z,3.70
2022-11-17T04:12:57.521Z,3.97
2022-11-17T04:15:43.940Z,3.43
2022-11-17T04:18:13.822Z,4.70
2022-11-17T04:20:42.517Z,3.97
2022-11-17T04:23:14.283Z,4.13
2022-11-17T04:26:02.823Z,4.07
2022-11-17T04:28:39.029Z,4.80
2022-11-17T04:31:11.604Z,4.53
2022-11-17T04:33:43.374Z,4.47
2022-11-17T04:36:13.689Z,4.73
2022-11-17T04:38:44.082Z,3.83
2022-11-17T04:41:32.668Z,3.93
2022-11-17T04:44:01.330Z,3.70
2022-11-17T04:46:32.320Z,4.27
2022-11-17T04:49:02.944Z,4.77
2022-11-17T04:51:32.192Z,4.00
2022-11-17T04:54:00.819Z,3.83
2022-11-17T04:56:29.937Z,4.23
2022-11-17T04:58:58.561Z,4.10
2022-11-17T05:01:28.519Z,5.20
2022-11-17T05:03:58.848Z,4.10
2022-11-17T05:06:32.003Z,4.13
2022-11-17T05:09:02.885Z,4.47
2022-11-17T05:11:49.823Z,4.87
2022-11-17T05:14:21.420Z,4.47
2022-11-17T05:17:09.833Z,4.53
2022-11-17T05:19:41.617Z,4.33
2022-11-17T05:22:30.262Z,4.77
2022-11-17T05:24:58.791Z,5.20
2022-11-17T05:27:27.441Z,4.73
2022-11-17T05:29:55.618Z,4.80
2022-11-17T05:32:23.896Z,5.17
2022-11-17T05:34:52.437Z,4.40
2022-11-17T05:37:21.925Z,5.17
2022-11-17T05:39:50.060Z,4.10
2022-11-17T05:42:18.172Z,4.00
2022-11-17T05:44:47.964Z,3.90
2022-11-17T05:47:16.099Z,4.37
2022-11-17T05:49:44.279Z,5.37
2022-11-17T05:52:12.694Z,4.47
2022-11-17T05:54:42.140Z,4.20
2022-11-17T05:57:17.031Z,5.10
2022-11-17T05:59:51.528Z,4.30
2022-11-17T06:02:25.435Z,4.27
2022-11-17T06:04:53.585Z,4.57
2022-11-17T06:07:21.920Z,6.17
2022-11-17T06:09:53.106Z,5.07
2022-11-17T06:12:21.220Z,5.70
2022-11-17T06:14:49.367Z,4.60
2022-11-17T06:17:23.440Z,4.77
2022-11-17T06:19:56.457Z,6.37
2022-11-17T06:22:27.423Z,5.37
2022-11-17T06:24:58.466Z,4.57
2022-11-17T06:27:29.100Z,4.87
2022-11-17T06:29:59.560Z,4.33
2022-11-17T06:32:30.408Z,4.40
2022-11-17T06:34:59.026Z,4.90
2022-11-17T06:37:27.338Z,6.00
2022-11-17T06:39:56.827Z,6.00
2022-11-17T06:42:38.960Z,4.57
2022-11-17T06:45:08.760Z,6.73
2022-11-17T06:47:37.248Z,5.00
2022-11-17T06:50:06.888Z,4.60
2022-11-17T06:52:34.993Z,5.70
2022-11-17T06:55:04.869Z,5.40
2022-11-17T06:57:32.961Z,4.83
2022-11-17T07:00:01.099Z,6.10
2022-11-17T07:02:29.261Z,6.80
2022-11-17T07:04:57.333Z,4.67
2022-11-17T07:07:25.586Z,5.10
2022-11-17T07:09:53.755Z,5.03
2022-11-17T07:12:23.184Z,4.70
2022-11-17T07:14:51.299Z,4.43
2022-11-17T07:17:19.450Z,4.97
2022-11-17T07:19:47.567Z,5.87
2022-11-17T07:22:15.715Z,4.77
2022-11-17T07:24:43.839Z,5.57
2022-11-17T07:27:11.985Z,6.53
2022-11-17T07:29:41.467Z,4.93
2022-11-17T07:32:13.684Z,4.90
2022-11-17T07:34:45.128Z,5.87
2022-11-17T07:37:13.514Z,4.77
2022-11-17T07:39:42.471Z,4.70
2022-11-17T07:42:10.886Z,5.07
2022-11-17T07:44:38.984Z,4.67
2022-11-17T07:47:08.436Z,6.10
2022-11-17T07:49:36.526Z,5.23
2022-11-17T07:52:05.029Z,4.60
2022-11-17T07:54:33.141Z,4.60
2022-11-17T07:57:01.228Z,4.30
2022-11-17T07:59:29.367Z,4.73
2022-11-17T08:01:58.063Z,4.80
2022-11-17T08:04:27.551Z,4.67
2022-11-17T08:06:55.745Z,4.47
2022-11-17T08:09:23.907Z,4.63
2022-11-17T08:11:52.536Z,4.23
2022-11-17T08:14:20.678Z,5.57
2022-11-17T08:16:48.820Z,6.03
2022-11-17T08:19:16.935Z,8.30
2022-11-17T08:21:46.387Z,5.70
2022-11-17T08:24:14.558Z,4.30
2022-11-17T08:26:42.686Z,4.67
2022-11-17T08:29:10.769Z,4.77
2022-11-17T08:31:41.482Z,4.30
2022-11-17T08:34:09.750Z,3.97
2022-11-17T08:36:37.988Z,4.47
2022-11-17T08:39:07.699Z,4.20
2022-11-17T08:41:35.850Z,3.73
2022-11-17T08:44:04.219Z,6.07
2022-11-17T08:46:32.377Z,3.30
2022-11-17T08:49:02.874Z,4.50
2022-11-17T08:51:31.175Z,4.03
2022-11-17T08:54:00.413Z,4.57
2022-11-17T08:56:29.874Z,4.77
2022-11-17T08:58:58.332Z,4.80
2022-11-17T09:01:27.106Z,4.77
2022-11-17T09:03:55.236Z,4.33
2022-11-17T09:06:23.558Z,3.90
2022-11-17T09:08:55.305Z,5.47
2022-11-17T09:11:24.101Z,5.90
2022-11-17T09:13:53.580Z,5.30
2022-11-17T09:16:23.889Z,4.23
2022-11-17T09:18:56.897Z,4.40
2022-11-17T09:21:27.047Z,5.73
2022-11-17T09:23:55.579Z,5.23
2022-11-17T09:26:23.669Z,5.77
2022-11-17T09:28:53.047Z,5.77
2022-11-17T09:31:23.326Z,4.87
2022-11-17T09:33:51.537Z,4.23
2022-11-17T09:36:19.617Z,4.50
2022-11-17T09:38:47.984Z,5.40
2022-11-17T09:41:27.198Z,4.30
2022-11-17T09:44:16.993Z,4.07
2022-11-17T09:47:03.961Z,4.03
2022-11-17T09:50:00.335Z,5.23
2022-11-17T09:52:34.477Z,5.80
2022-11-17T09:55:11.013Z,4.90
2022-11-17T09:57:46.530Z,4.93
2022-11-17T10:00:20.331Z,4.50
2022-11-17T10:02:49.869Z,5.13
2022-11-17T10:05:26.925Z,4.80
2022-11-17T10:08:01.199Z,5.83
2022-11-17T10:10:38.730Z,5.03
2022-11-17T10:13:18.505Z,4.77
2022-11-17T10:15:52.489Z,5.03
2022-11-17T10:18:20.587Z,5.20
2022-11-17T10:20:48.915Z,5.20
2022-11-17T10:23:20.475Z,5.23
2022-11-17T10:25:56.814Z,5.30
2022-11-17T10:28:31.347Z,5.63
2022-11-17T10:31:04.095Z,4.77
2022-11-17T10:33:39.608Z,4.47
2022-11-17T10:36:18.716Z,5.00
2022-11-17T10:38:49.853Z,5.77
2022-11-17T10:41:23.816Z,6.70
2022-11-17T10:44:02.711Z,5.17
2022-11-17T10:46:43.112Z,5.67
2022-11-17T10:49:27.361Z,6.50
2022-11-17T10:52:07.822Z,5.13
2022-11-17T10:54:36.303Z,5.97
2022-11-17T10:57:09.800Z,5.30
2022-11-17T10:59:49.689Z,6.87
2022-11-17T11:02:31.726Z,6.47
2022-11-17T11:05:09.147Z,6.37
2022-11-17T11:07:38.071Z,6.40
2022-11-17T11:10:16.693Z,5.43
2022-11-17T11:12:53.596Z,5.47
2022-11-17T11:15:24.226Z,5.27
2022-11-17T11:17:53.705Z,5.30
2022-11-17T11:20:46.617Z,5.30
2022-11-17T11:23:26.953Z,5.00
2022-11-17T11:26:13.586Z,6.87
2022-11-17T11:29:04.664Z,5.50
2022-11-17T11:31:48.456Z,6.87
2022-11-17T11:34:40.746Z,6.73
2022-11-17T11:37:12.725Z,7.30
2022-11-17T11:39:55.392Z,6.30
2022-11-17T11:42:48.671Z,6.80
2022-11-17T11:45:28.414Z,5.70
2022-11-17T11:48:17.211Z,6.60
2022-11-17T11:50:56.133Z,6.97
2022-11-17T11:53:33.073Z,7.60
2022-11-17T11:56:15.797Z,6.33
2022-11-17T11:58:53.801Z,7.17
2022-11-17T12:01:24.618Z,6.73
2022-11-17T12:04:13.854Z,7.40
2022-11-17T12:06:53.806Z,7.57
2022-11-17T12:09:49.466Z,6.37
2022-11-17T12:12:21.825Z,7.00
2022-11-17T12:15:13.466Z,6.10
2022-11-17T12:18:00.967Z,8.47
2022-11-17T12:20:56.300Z,7.10
2022-11-17T12:23:48.903Z,6.97
2022-11-17T12:26:27.653Z,6.27
2022-11-17T12:29:26.467Z,6.27
2022-11-17T12:31:56.337Z,7.13
2022-11-17T12:34:31.611Z,7.27
2022-11-17T12:37:22.670Z,7.10
2022-11-17T12:39:59.615Z,6.93
2022-11-17T12:42:29.131Z,5.97
2022-11-17T12:45:02.950Z,6.40
2022-11-17T12:47:34.063Z,6.30
2022-11-17T12:50:38.961Z,8.90
2022-11-17T12:53:52.695Z,6.20
2022-11-17T12:57:03.106Z,5.90
2022-11-17T13:00:07.625Z,6.03
2022-11-17T13:02:59.503Z,6.47
2022-11-17T13:05:30.521Z,6.53
2022-11-17T13:08:21.083Z,7.83
2022-11-17T13:10:49.741Z,5.60
2022-11-17T13:13:22.141Z,5.83
2022-11-17T13:15:52.783Z,7.03
2022-11-17T13:18:32.271Z,5.73
2022-11-17T13:21:01.758Z,5.97
2022-11-17T13:23:32.638Z,7.03
2022-11-17T13:26:19.553Z,6.80
2022-11-17T13:28:49.869Z,6.67
2022-11-17T13:31:22.142Z,6.97
2022-11-17T13:34:03.300Z,8.57
2022-11-17T13:36:31.495Z,7.27
2022-11-17T13:39:01.311Z,7.33
2022-11-17T13:41:38.074Z,7.23
2022-11-17T13:44:12.837Z,7.67
2022-11-17T13:46:41.061Z,6.60
2022-11-17T13:49:34.355Z,6.67
2022-11-17T13:52:03.290Z,7.33
2022-11-17T13:54:32.432Z,7.30
2022-11-17T13:57:08.729Z,8.03
2022-11-17T13:59:40.507Z,6.90
2022-11-17T14:02:26.904Z,7.03
2022-11-17T14:05:23.493Z,6.93
2022-11-17T14:07:52.983Z,7.20
2022-11-17T14:10:38.038Z,6.67
2022-11-17T14:13:29.770Z,6.80
2022-11-17T14:16:01.635Z,7.50
2022-11-17T14:18:36.690Z,6.87
2022-11-17T14:21:12.548Z,8.03
2022-11-17T14:23:41.198Z,6.90
2022-11-17T14:26:20.499Z,6.90
2022-11-17T14:28:50.321Z,7.53
2022-11-17T14:31:20.266Z,7.60
2022-11-17T14:33:50.348Z,10.27
2022-11-17T14:36:19.279Z,7.63
2022-11-17T14:38:47.814Z,8.23
2022-11-17T14:41:18.327Z,8.20
2022-11-17T14:43:46.987Z,7.53
2022-11-17T14:46:26.433Z,7.40
2022-11-17T14:48:55.701Z,9.30
2022-11-17T14:51:24.089Z,7.17
2022-11-17T14:53:54.030Z,8.67
2022-11-17T14:56:24.632Z,8.60
2022-11-17T14:58:57.271Z,8.10
2022-11-17T15:01:30.420Z,9.33
2022-11-17T15:04:20.833Z,7.80
2022-11-17T15:06:50.786Z,8.83
2022-11-17T15:09:20.426Z,9.10
2022-11-17T15:11:48.771Z,7.33
2022-11-17T15:14:17.032Z,7.93
2022-11-17T15:16:46.716Z,8.07
2022-11-17T15:19:14.764Z,8.23
2022-11-17T15:21:42.845Z,7.87
2022-11-17T15:24:11.034Z,8.57
2022-11-17T15:26:39.114Z,7.60
2022-11-17T15:29:07.195Z,8.20
2022-11-17T15:31:35.673Z,8.50
2022-11-17T15:34:05.201Z,9.37
2022-11-17T15:36:33.393Z,8.33
2022-11-17T15:39:01.479Z,8.30
2022-11-17T15:41:32.761Z,7.70
2022-11-17T15:44:01.362Z,7.00
2022-11-17T15:46:29.542Z,6.97
2022-11-17T15:48:57.971Z,6.70
2022-11-17T15:51:29.168Z,6.80
2022-11-17T15:53:59.330Z,7.80
2022-11-17T15:56:29.904Z,7.57
2022-11-17T15:59:01.593Z,7.00
2022-11-17T16:01:32.632Z,7.17
2022-11-17T16:04:03.120Z,7.10
2022-11-17T16:06:35.625Z,7.33
2022-11-17T16:09:06.393Z,7.23
2022-11-17T16:11:34.974Z,7.10
2022-11-17T16:14:03.599Z,7.10
2022-11-17T16:16:34.967Z,6.87
2022-11-17T16:19:03.442Z,7.87
2022-11-17T16:21:32.851Z,7.53
2022-11-17T16:24:02.123Z,7.07
2022-11-17T16:26:31.900Z,9.17
2022-11-17T16:29:02.343Z,7.50
2022-11-17T16:31:32.982Z,8.43
2022-11-17T16:34:03.519Z,7.20
2022-11-17T16:36:37.118Z,7.63
2022-11-17T16:39:07.961Z,8.17
2022-11-17T16:41:38.532Z,7.43
2022-11-17T16:44:09.799Z,8.60
2022-11-17T16:46:38.586Z,7.83
2022-11-17T16:49:10.325Z,7.33
2022-11-17T16:51:40.375Z,8.63
2022-11-17T16:54:13.490Z,7.93
2022-11-17T16:56:42.638Z,7.97
2022-11-17T16:59:12.046Z,8.60
2022-11-17T17:01:40.392Z,8.30
2022-11-17T17:04:10.903Z,7.90
2022-11-17T17:06:43.121Z,7.20
2022-11-17T17:09:15.030Z,9.17
2022-11-17T17:11:43.842Z,7.77
2022-11-17T17:14:15.732Z,9.10
2022-11-17T17:16:44.343Z,8.60
2022-11-17T17:19:15.747Z,9.23
2022-11-17T17:21:45.920Z,9.93
2022-11-17T17:24:14.433Z,10.80
2022-11-17T17:26:42.624Z,9.40
2022-11-17T17:29:12.581Z,8.10
2022-11-17T17:31:43.086Z,8.90
2022-11-17T17:34:13.800Z,8.63
2022-11-17T17:36:41.914Z,9.23
2022-11-17T17:39:16.274Z,8.50
2022-11-17T17:41:45.880Z,8.90
2022-11-17T17:44:17.195Z,9.30
2022-11-17T17:46:45.749Z,10.73
2022-11-17T17:49:14.763Z,9.87
2022-11-17T17:51:45.031Z,11.13
2022-11-17T17:54:20.075Z,9.80
2022-11-17T17:56:48.441Z,9.20
2022-11-17T17:59:17.352Z,10.50
2022-11-17T18:01:47.574Z,10.37
2022-11-17T18:04:17.153Z,9.63
2022-11-17T18:06:47.917Z,10.77
2022-11-17T18:09:20.316Z,10.60
2022-11-17T18:11:51.200Z,9.60
2022-11-17T18:14:24.482Z,9.37
2022-11-17T18:16:53.657Z,9.23
2022-11-17T18:19:24.064Z,10.33
2022-11-17T18:21:55.095Z,10.10
2022-11-17T18:24:24.613Z,10.83
2022-11-17T18:26:52.621Z,11.23
2022-11-17T18:29:20.756Z,10.37
2022-11-17T18:31:50.478Z,10.50
2022-11-17T18:34:22.261Z,9.67
2022-11-17T18:36:51.445Z,9.70
2022-11-17T18:39:19.788Z,8.20
2022-11-17T18:41:49.652Z,9.30
2022-11-17T18:44:19.428Z,8.27
2022-11-17T18:46:48.108Z,10.13
2022-11-17T18:49:16.521Z,10.43
2022-11-17T18:51:44.876Z,9.40
2022-11-17T18:54:14.662Z,10.00
2022-11-17T18:56:44.409Z,10.20
2022-11-17T18:59:14.576Z,10.03
2022-11-17T19:01:44.079Z,9.50
2022-11-17T19:04:14.579Z,10.03
2022-11-17T19:06:43.130Z,10.00
2022-11-17T19:09:11.676Z,9.70
2022-11-17T19:11:40.025Z,11.20
2022-11-17T19:14:08.149Z,9.33
2022-11-17T19:16:44.055Z,9.20
2022-11-17T19:19:14.959Z,10.30
2022-11-17T19:21:44.320Z,8.53
2022-11-17T19:24:12.767Z,10.43
2022-11-17T19:26:40.956Z,8.90
2022-11-17T19:29:16.589Z,8.33
2022-11-17T19:31:47.658Z,9.10
2022-11-17T19:34:16.315Z,8.80
2022-11-17T19:36:45.132Z,10.40
2022-11-17T19:39:14.661Z,10.40
2022-11-17T19:41:43.542Z,9.53
2022-11-17T19:44:11.658Z,9.93
2022-11-17T19:46:39.816Z,8.27
2022-11-17T19:49:09.491Z,8.67
2022-11-17T19:51:38.472Z,9.47
2022-11-17T19:54:08.976Z,9.77
2022-11-17T19:56:38.213Z,9.73
2022-11-17T19:59:11.099Z,9.50
2022-11-17T20:01:43.620Z,10.40
2022-11-17T20:04:13.204Z,9.77
2022-11-17T20:06:41.528Z,8.67
2022-11-17T20:09:12.402Z,9.27
2022-11-17T20:11:41.324Z,9.50
2022-11-17T20:14:10.651Z,9.83
2022-11-17T20:16:39.295Z,9.23
2022-11-17T20:19:07.710Z,8.67
2022-11-17T20:21:37.157Z,9.00
2022-11-17T20:24:05.620Z,9.77
2022-11-17T20:26:36.148Z,9.70
2022-11-17T20:29:04.238Z,9.67
2022-11-17T20:31:36.229Z,9.40
2022-11-17T20:34:06.506Z,8.30
2022-11-17T20:36:36.562Z,9.23
2022-11-17T20:39:07.684Z,9.33
2022-11-17T20:41:36.351Z,11.50
2022-11-17T20:44:04.971Z,9.60
2022-11-17T20:46:33.368Z,9.57
2022-11-17T20:49:01.443Z,9.50
2022-11-17T20:51:29.540Z,8.77
2022-11-17T20:53:58.931Z,8.60
2022-11-17T20:56:26.986Z,9.40
2022-11-17T20:58:55.056Z,10.17
2022-11-17T21:01:24.279Z,10.03
2022-11-17T21:03:53.008Z,8.47
2022-11-17T21:06:23.057Z,9.60
2022-11-17T21:08:51.612Z,9.47
2022-11-17T21:11:46.263Z,9.03
2022-11-17T21:14:15.018Z,9.37
2022-11-17T21:16:45.605Z,10.47
2022-11-17T21:19:15.181Z,10.33
2022-11-17T21:21:43.901Z,10.17
2022-11-17T21:24:12.656Z,9.70
2022-11-17T21:26:42.116Z,9.73
2022-11-17T21:29:10.174Z,9.17
2022-11-17T21:31:39.640Z,10.87
2022-11-17T21:34:08.712Z,9.33
2022-11-17T21:36:37.214Z,8.93
2022-11-17T21:39:05.764Z,8.57
2022-11-17T21:41:37.739Z,9.10
2022-11-17T21:44:07.372Z,9.67
2022-11-17T21:46:36.122Z,9.37
2022-11-17T21:49:04.671Z,9.37
2022-11-17T21:51:38.134Z,9.83
2022-11-17T21:54:09.638Z,9.33
2022-11-17T21:56:38.328Z,10.17
2022-11-17T21:59:12.390Z,9.53
2022-11-17T22:01:41.026Z,9.67
2022-11-17T22:04:09.225Z,9.10
2022-11-17T22:06:40.048Z,9.73
2022-11-17T22:09:08.544Z,9.87
2022-11-17T22:11:37.345Z,10.10
2022-11-17T22:14:11.156Z,9.90
2022-11-17T22:16:41.795Z,10.30
2022-11-17T22:19:11.481Z,10.37
2022-11-17T22:21:40.621Z,10.33
2022-11-17T22:24:11.953Z,11.00
2022-11-17T22:26:42.341Z,11.77
2022-11-17T22:29:14.995Z,11.17
2022-11-17T22:31:44.066Z,11.90
2022-11-17T22:34:12.861Z,12.43
2022-11-17T22:36:41.180Z,11.20
2022-11-17T22:39:10.107Z,14.07
2022-11-17T22:41:38.344Z,12.30
2022-11-17T22:44:07.332Z,12.50
2022-11-17T22:46:37.036Z,13.83
2022-11-17T22:49:05.200Z,13.10
2022-11-17T22:51:51.301Z,12.63
2022-11-17T22:54:19.443Z,11.27
2022-11-17T22:56:47.962Z,14.17
2022-11-17T22:59:16.557Z,13.00
2022-11-17T23:01:46.156Z,12.30
2022-11-17T23:04:15.601Z,12.70
2022-11-17T23:06:44.206Z,14.13
2022-11-17T23:09:13.344Z,12.60
2022-11-17T23:11:42.245Z,12.33
2022-11-17T23:14:13.637Z,11.70
2022-11-17T23:16:42.379Z,11.90
2022-11-17T23:19:15.365Z,12.13
2022-11-17T23:21:43.892Z,12.37
2022-11-17T23:24:14.338Z,13.40
2022-11-17T23:26:43.437Z,14.20
2022-11-17T23:29:11.772Z,15.20
2022-11-17T23:31:39.987Z,12.90
2022-11-17T23:34:10.846Z,12.73
2022-11-17T23:36:40.599Z,12.93
2022-11-17T23:39:08.904Z,13.43
2022-11-17T23:41:37.038Z,14.13
2022-11-17T23:44:05.767Z,14.00
2022-11-17T23:46:33.893Z,14.33
2022-11-17T23:49:02.100Z,14.27
2022-11-17T23:51:30.329Z,15.10
2022-11-17T23:54:02.767Z,14.00
2022-11-17T23:56:33.475Z,13.60
2022-11-17T23:59:01.940Z,14.70
